Terminal Aerodrome Forecast
Issued by NWS Atlanta, GA

Current Version | Previous Version | Text Only | Print | Product List | Glossary On
Versions: 1 2 3 4 5 6 7 8 9 10 11 12 13 14 15 16 17
000
FTUS42 KFFC 181700
TAFCSG
TAF
KCSG 181738Z 1818/1918 35004KT P6SM SCT045
     FM190300 00000KT P6SM FEW050
     FM191100 04003KT P6SM BKN015
     FM191600 12005KT P6SM SCT040=

USA.gov is the U.S. government's official web portal to all federal, state and local government web resources and services.